Eagle Sydney — 3FUU — position and weather

sailwx.info

Track history (hours):
 
Tides and Currents Weather Stations Pressure Air Temp Water Temp Dewpoint Dewpoint Depression Visibility Wind Speed Wind Dir Waves Ship Positions

Eagle Sydney

Last reported at 2018-Jul-22 01:00 UTC. Time now 2018-Jul-22 01:02 UTC.
Position N 28°33' W 094°37'.

Length 229 m; draft 12 m.

Type: Ship (hazmat cat A). MMSI: 352124930.

Date/timePositionNaut miles runAvg speedWind from/ knotsBaromVisibWave heightAir tempDewpointWater temp
2018-Jul-22 01:00N 28°33' W 094°37'0 0.1
2018-Jul-22 00:30N 28°33' W 094°37'0 0.1
2018-Jul-21 23:58N 28°33' W 094°37'0 0.2
2018-Jul-21 23:30N 28°33' W 094°37'0 0.1
2018-Jul-21 23:00N 28°33' W 094°37'0 0.1
2018-Jul-21 22:30N 28°33' W 094°37'0 0.1
2018-Jul-21 22:00N 28°33' W 094°37'0 0.0
2018-Jul-21 21:30N 28°33' W 094°37'0 0.0
2018-Jul-21 20:59N 28°33' W 094°37'0 0.0
2018-Jul-21 20:30N 28°33' W 094°37'0 0.0
2018-Jul-21 20:00N 28°33' W 094°37'0 0.1
2018-Jul-21 19:30N 28°33' W 094°37'0 0.1
2018-Jul-21 18:59N 28°33' W 094°37'0 0.0
2018-Jul-21 17:01N 28°33' W 094°37'0 0.0
2018-Jul-21 17:00N 28°33' W 094°37'0 0.0
2018-Jul-21 16:30N 28°33' W 094°37'0 0.0
2018-Jul-21 15:59N 28°33' W 094°37'0 0.0
2018-Jul-21 15:29N 28°33' W 094°37'0 0.2
2018-Jul-21 15:00N 28°33' W 094°37'1 1.3
2018-Jul-21 14:30N 28°33' W 094°36'5 4.6
2018-Jul-21 13:30N 28°35' W 094°32'3 6.1
2018-Jul-21 13:00N 28°36' W 094°28'0 0.8
2018-Jul-21 12:30N 28°36' W 094°28'1 1.0
2018-Jul-21 12:00N 28°36' W 094°28'2 4.9
2018-Jul-21 11:30N 28°36' W 094°25'4 8.5
2018-Jul-21 11:00N 28°37' W 094°21'3 6.9
2018-Jul-21 10:30N 28°38' W 094°17'1 1.1
2018-Jul-21 09:58N 28°38' W 094°16'0 0.0
2018-Jul-21 09:28N 28°38' W 094°16'0 0.0
2018-Jul-21 08:58N 28°38' W 094°16'0 0.0
2018-Jul-21 08:28N 28°38' W 094°16'0 0.0
2018-Jul-21 07:37N 28°38' W 094°16'0 0.0
2018-Jul-21 07:25N 28°38' W 094°16'0 0.0
2018-Jul-21 06:55N 28°38' W 094°16'0 0.0
2018-Jul-21 06:28N 28°38' W 094°16'0 0.0
2018-Jul-21 05:58N 28°38' W 094°16'0 0.0
2018-Jul-21 05:22N 28°38' W 094°16'0 0.0
2018-Jul-21 04:58N 28°38' W 094°16'0 0.0
2018-Jul-21 04:28N 28°38' W 094°16'0 0.0
2018-Jul-21 03:58N 28°38' W 094°16'0 0.0
2018-Jul-21 03:28N 28°38' W 094°16'0 0.0
2018-Jul-21 02:58N 28°38' W 094°16'0 0.1
2018-Jul-21 02:28N 28°38' W 094°16'0 0.1
2018-Jul-21 01:55N 28°38' W 094°16'0 0.0
2018-Jul-21 01:28N 28°38' W 094°16'0 0.0
2018-Jul-21 00:52N 28°38' W 094°16'0 0.2
2018-Jul-21 00:28N 28°38' W 094°16'1 1.8
2018-Jul-21 00:00N 28°37' W 094°16'510.3
2018-Jul-20 23:31N 28°37' W 094°10'611.7
2018-Jul-20 23:00N 28°38' W 094°04'611.7
2018-Jul-20 22:30N 28°41' W 093°58'611.6
2018-Jul-20 22:01N 28°45' W 093°53'611.4
2018-Jul-20 21:30N 28°49' W 093°49'611.2
2018-Jul-20 21:00N 28°54' W 093°45'611.9
2018-Jul-20 20:30N 28°59' W 093°43'611.8
2018-Jul-20 20:00N 29°05' W 093°41'611.9
2018-Jul-20 19:30N 29°11' W 093°40'510.9
2018-Jul-20 19:00N 29°16' W 093°39'510.5
2018-Jul-20 18:30N 29°22' W 093°40'4 8.7
2018-Jul-20 18:00N 29°26' W 093°40'5 9.8
2018-Jul-20 17:30N 29°30' W 093°42'611.7
2018-Jul-20 17:00N 29°35' W 093°47'510.5
2018-Jul-20 16:30N 29°39' W 093°50'4 8.9
2018-Jul-20 16:01N 29°43' W 093°52'4 7.5
2018-Jul-20 15:31N 29°46' W 093°55'4 7.0
2018-Jul-20 15:01N 29°48' W 093°57'3 6.0
2018-Jul-20 14:30N 29°51' W 093°57'3 5.8
2018-Jul-20 14:00N 29°54' W 093°54'3 6.6
2018-Jul-20 13:30N 29°56' W 093°52'3 5.4
2018-Jul-20 13:00N 29°59' W 093°53'3 5.9
2018-Jul-20 12:31N 29°59' W 093°56'2 4.6
2018-Jul-20 12:01N 30°01' W 093°58'1 2.7
2018-Jul-20 11:30N 30°01' W 093°60'0 0.0
2018-Jul-20 11:01N 30°01' W 093°60'0 0.0
2018-Jul-20 10:21N 30°01' W 093°60'0 0.0
2018-Jul-20 10:00N 30°01' W 093°60'0 0.0
2018-Jul-20 09:30N 30°01' W 093°60'0 0.0
2018-Jul-20 09:01N 30°01' W 093°60'0 0.0
2018-Jul-20 08:30N 30°01' W 093°60'0 0.0
2018-Jul-20 08:00N 30°01' W 093°60'0 0.0
2018-Jul-20 07:30N 30°01' W 093°60'0 0.0
2018-Jul-20 07:00N 30°01' W 093°60'0 0.0
2018-Jul-20 06:27N 30°01' W 093°60'0 0.0
2018-Jul-20 06:00N 30°01' W 093°60'0 0.0
2018-Jul-20 05:27N 30°01' W 093°60'0 0.0
2018-Jul-20 05:00N 30°01' W 093°60'0 0.0
2018-Jul-20 04:30N 30°01' W 093°60'0 0.0
2018-Jul-20 04:00N 30°01' W 093°60'0 0.0
2018-Jul-20 03:30N 30°01' W 093°60'0 0.0
2018-Jul-20 03:00N 30°01' W 093°60'0 0.0
2018-Jul-20 02:27N 30°01' W 093°60'0 0.0
2018-Jul-20 02:00N 30°01' W 093°60'0 0.0
2018-Jul-20 01:30N 30°01' W 093°60'0 0.0
2018-Jul-20 01:00N 30°01' W 093°60'0 0.0
2018-Jul-20 00:30N 30°01' W 093°60'0 0.0
2018-Jul-20 00:00N 30°01' W 093°60'0 0.0
2018-Jul-19 23:31N 30°01' W 093°60'0 0.0
2018-Jul-19 23:01N 30°01' W 093°60'0 0.0
2018-Jul-19 22:31N 30°01' W 093°60'0 0.0
2018-Jul-19 22:00N 30°01' W 093°60'0 0.0
2018-Jul-19 21:31N 30°01' W 093°60'0 0.0
2018-Jul-19 21:01N 30°01' W 093°60'0 0.0
2018-Jul-19 20:31N 30°01' W 093°60'0 0.0
2018-Jul-19 20:00N 30°01' W 093°60'0 0.0
2018-Jul-19 19:30N 30°01' W 093°60'0 0.0
2018-Jul-19 19:00N 30°01' W 093°60'0 0.0
2018-Jul-19 18:27N 30°01' W 093°60'0 0.0
2018-Jul-19 18:00N 30°01' W 093°60'0 0.0
2018-Jul-19 17:30N 30°01' W 093°60'0 0.0
2018-Jul-19 17:01N 30°01' W 093°60'0 0.0
2018-Jul-19 16:31N 30°01' W 093°60'0 0.0
2018-Jul-19 16:00N 30°01' W 093°60'0 0.0
2018-Jul-19 15:30N 30°01' W 093°60'0 0.0
2018-Jul-19 15:00N 30°01' W 093°60'0 0.0
2018-Jul-19 14:30N 30°01' W 093°60'0 0.0
2018-Jul-19 13:31N 30°01' W 093°60'0 0.0
2018-Jul-19 13:01N 30°01' W 093°60'0 0.0
2018-Jul-19 12:30N 30°01' W 093°60'0 0.0
2018-Jul-19 12:00N 30°01' W 093°60'0 0.0
2018-Jul-19 11:30N 30°01' W 093°60'0 0.0
2018-Jul-19 11:00N 30°01' W 093°60'0 0.0
2018-Jul-19 10:30N 30°01' W 093°60'0 0.0
2018-Jul-19 10:00N 30°01' W 093°60'0 0.0
2018-Jul-19 09:30N 30°01' W 093°60'0 0.0
2018-Jul-19 09:00N 30°01' W 093°60'0 0.0
2018-Jul-19 08:30N 30°01' W 093°60'0 0.0
2018-Jul-19 08:00N 30°01' W 093°60'0 0.0
2018-Jul-19 07:30N 30°01' W 093°60'0 0.0
2018-Jul-19 07:00N 30°01' W 093°60'0 0.0
2018-Jul-19 06:30N 30°01' W 093°60'0 0.0
2018-Jul-19 06:00N 30°01' W 093°60'0 0.0
2018-Jul-19 05:30N 30°01' W 093°60'0 0.0
2018-Jul-19 05:00N 30°01' W 093°60'0 0.0
2018-Jul-19 04:30N 30°01' W 093°60'0 0.0
2018-Jul-19 04:00N 30°01' W 093°60'0 0.0
2018-Jul-19 03:30N 30°01' W 093°60'0 0.0
2018-Jul-19 03:00N 30°01' W 093°60'0 0.0
2018-Jul-19 02:30N 30°01' W 093°60'0 0.0
2018-Jul-19 02:01N 30°01' W 093°60'0 0.0
2018-Jul-19 01:30N 30°01' W 093°60'0 0.0
2018-Jul-19 01:01N 30°01' W 093°60'0 0.0
2018-Jul-19 00:30N 30°01' W 093°60'0 0.0
2018-Jul-19 00:00N 30°01' W 093°60'0 0.0
2018-Jul-18 23:30N 30°01' W 093°60'0 0.0
2018-Jul-18 23:00N 30°01' W 093°60'0 0.0
2018-Jul-18 22:30N 30°01' W 093°60'0 0.0
2018-Jul-18 22:01N 30°01' W 093°60'0 0.0
2018-Jul-18 21:31N 30°01' W 093°60'1 2.2
2018-Jul-18 21:01N 30°01' W 093°59'3 5.0
2018-Jul-18 20:31N 29°59' W 093°56'0 0.6
2018-Jul-18 20:00N 29°60' W 093°56'0 0.0
2018-Jul-18 19:30N 29°60' W 093°56'0 0.0
2018-Jul-18 19:00N 29°60' W 093°56'0 0.0
2018-Jul-18 18:30N 29°60' W 093°56'0 0.0
2018-Jul-18 18:00N 29°60' W 093°56'0 0.0
2018-Jul-18 17:30N 29°60' W 093°56'0 0.0
2018-Jul-18 17:00N 29°60' W 093°56'0 0.0
2018-Jul-18 16:30N 29°60' W 093°56'0 0.0
2018-Jul-18 16:00N 29°60' W 093°56'0 0.0
2018-Jul-18 15:30N 29°60' W 093°56'0 0.0
2018-Jul-18 15:00N 29°60' W 093°56'0 0.0
2018-Jul-18 14:30N 29°60' W 093°56'0 0.0
2018-Jul-18 13:30N 29°60' W 093°56'0 0.0
2018-Jul-18 13:00N 29°60' W 093°56'0 0.0
2018-Jul-18 12:30N 29°60' W 093°56'0 0.0
2018-Jul-18 12:00N 29°60' W 093°56'0 0.0
2018-Jul-18 11:30N 29°60' W 093°56'0 0.0
2018-Jul-18 10:30N 29°60' W 093°56'0 0.0
2018-Jul-18 10:00N 29°60' W 093°56'0 0.0
2018-Jul-18 09:30N 29°60' W 093°56'0 0.0
2018-Jul-18 09:00N 29°60' W 093°56'0 0.0
2018-Jul-18 08:30N 29°60' W 093°56'0 0.0
2018-Jul-18 08:00N 29°60' W 093°56'0 0.0
2018-Jul-18 07:30N 29°60' W 093°56'0 0.0
2018-Jul-18 07:00N 29°60' W 093°56'0 0.0
2018-Jul-18 06:30N 29°60' W 093°56'0 0.0
2018-Jul-18 06:00N 29°60' W 093°56'0 0.0
2018-Jul-18 05:30N 29°60' W 093°56'0 0.0
2018-Jul-18 05:00N 29°60' W 093°56'0 0.0
2018-Jul-18 04:30N 29°60' W 093°56'0 0.0
2018-Jul-18 04:00N 29°60' W 093°56'0 0.0
2018-Jul-18 03:30N 29°60' W 093°56'0 0.0
2018-Jul-18 03:00N 29°60' W 093°56'0 0.0
2018-Jul-18 02:30N 29°60' W 093°56'0 0.0
2018-Jul-18 02:00N 29°60' W 093°56'0 0.0
2018-Jul-18 01:30N 29°60' W 093°56'0 0.0
2018-Jul-18 01:00N 29°60' W 093°56'0 0.0
2018-Jul-18 00:30N 29°60' W 093°56'0 0.0
2018-Jul-18 00:00N 29°60' W 093°56'0 0.1
2018-Jul-17 23:30N 29°60' W 093°56'0 0.0
2018-Jul-17 23:00N 29°60' W 093°56'0 0.0
2018-Jul-17 22:30N 29°59' W 093°56'0 0.0
2018-Jul-17 22:00N 29°59' W 093°56'0 0.0
2018-Jul-17 21:30N 29°59' W 093°56'0 0.0
2018-Jul-17 21:00N 29°59' W 093°56'0 0.0
2018-Jul-17 20:30N 29°59' W 093°56'0 0.0
2018-Jul-17 20:00N 29°59' W 093°56'0 0.0
2018-Jul-17 19:30N 29°59' W 093°56'0 0.0
2018-Jul-17 19:00N 29°59' W 093°56'0 0.0
2018-Jul-17 18:30N 29°59' W 093°56'0 0.0
2018-Jul-17 18:00N 29°59' W 093°56'0 0.0
2018-Jul-17 17:30N 29°59' W 093°56'0 0.0
2018-Jul-17 17:00N 29°59' W 093°56'0 0.0
2018-Jul-17 16:30N 29°59' W 093°56'0 0.0
2018-Jul-17 16:00N 29°59' W 093°56'0 0.0
2018-Jul-17 15:30N 29°59' W 093°56'0 0.0
2018-Jul-17 15:00N 29°59' W 093°56'0 0.1
2018-Jul-17 14:30N 29°60' W 093°56'0 0.0
2018-Jul-17 14:00N 29°60' W 093°56'0 0.0
2018-Jul-17 13:30N 29°60' W 093°56'0 0.0
2018-Jul-17 13:00N 29°60' W 093°56'0 0.0
2018-Jul-17 12:30N 29°60' W 093°56'0 0.0
2018-Jul-17 12:00N 29°60' W 093°56'0 0.0
2018-Jul-17 11:30N 29°60' W 093°56'0 0.0
2018-Jul-17 11:00N 29°60' W 093°56'0 0.0
2018-Jul-17 10:30N 29°60' W 093°56'0 0.0
2018-Jul-17 10:00N 29°60' W 093°56'0 0.0
2018-Jul-17 09:30N 29°60' W 093°56'0 0.0
2018-Jul-17 09:00N 29°60' W 093°56'0 0.0
2018-Jul-17 08:30N 29°60' W 093°56'0 0.0
2018-Jul-17 08:00N 29°60' W 093°56'0 0.0
2018-Jul-17 07:30N 29°60' W 093°56'0 0.0
2018-Jul-17 07:00N 29°60' W 093°56'0 0.0
2018-Jul-17 06:30N 29°60' W 093°56'0 0.0
2018-Jul-17 06:00N 29°60' W 093°56'0 0.0
2018-Jul-17 05:30N 29°60' W 093°56'0 0.0
2018-Jul-17 05:00N 29°60' W 093°56'0 0.0
2018-Jul-17 04:30N 29°60' W 093°56'0 0.0
2018-Jul-17 04:00N 29°60' W 093°56'0 0.0
2018-Jul-17 03:30N 29°60' W 093°56'0 0.0
2018-Jul-17 03:00N 29°60' W 093°56'0 0.0
2018-Jul-17 02:30N 29°60' W 093°56'0 0.0
2018-Jul-17 02:00N 29°60' W 093°56'0 0.0
2018-Jul-17 01:30N 29°60' W 093°56'0 0.0
2018-Jul-17 01:00N 29°60' W 093°56'0 0.0
2018-Jul-17 00:30N 29°60' W 093°56'0 0.0
2018-Jul-16 23:30N 29°60' W 093°56'0 0.0
2018-Jul-16 23:00N 29°60' W 093°56'0 0.0
2018-Jul-16 22:30N 29°60' W 093°56'0 0.0
2018-Jul-16 22:00N 29°60' W 093°56'0 0.2
2018-Jul-16 21:30N 29°59' W 093°56'1 2.6
2018-Jul-16 21:00N 29°60' W 093°57'2 4.3
2018-Jul-16 20:31N 29°59' W 093°55'3 6.5
2018-Jul-16 20:00N 29°58' W 093°51'3 6.9
2018-Jul-16 19:30N 29°55' W 093°53'4 8.0
2018-Jul-16 19:00N 29°52' W 093°56'4 7.8
2018-Jul-16 18:30N 29°48' W 093°57'4 8.1
2018-Jul-16 18:00N 29°45' W 093°53'4 7.1
2018-Jul-16 17:30N 29°43' W 093°51'611.5
2018-Jul-16 17:01N 29°37' W 093°49'611.5
2018-Jul-16 16:30N 29°33' W 093°44'611.3
2018-Jul-16 16:00N 29°29' W 093°40'5 9.2
2018-Jul-16 15:30N 29°24' W 093°39'2 4.2
2018-Jul-16 15:00N 29°24' W 093°41'0 0.1
2018-Jul-16 14:31N 29°24' W 093°41'0 0.0
2018-Jul-16 14:00N 29°24' W 093°41'1 1.0
2018-Jul-16 13:31N 29°24' W 093°41'4 8.2
2018-Jul-16 13:00N 29°20' W 093°40'611.9
2018-Jul-16 12:30N 29°15' W 093°39'712.5
2018-Jul-16 11:59N 29°08' W 093°39'612.5
2018-Jul-16 11:30N 29°03' W 093°35'612.3
2018-Jul-16 11:00N 28°58' W 093°31'612.8
2018-Jul-16 10:30N 28°53' W 093°27'613.1
2018-Jul-16 10:00N 28°48' W 093°22'713.1
2018-Jul-16 09:28N 28°42' W 093°17'613.1
2018-Jul-16 09:00N 28°37' W 093°13'713.2
2018-Jul-16 08:28N 28°32' W 093°08'  
Track history (hours):
 
Tides and Currents Weather Stations Pressure Air Temp Water Temp Dewpoint Dewpoint Depression Visibility Wind Speed Wind Dir Waves Ship Positions

Eagle Sydney

Last reported at 2018-Jul-22 01:00 UTC. Time now 2018-Jul-22 01:02 UTC.
Position N 28°33' W 094°37'.

Length 229 m; draft 12 m.

Type: Ship (hazmat cat A). MMSI: 352124930.

Date/timePositionNaut miles runAvg speedWind from/ knotsBaromVisibWave heightAir tempDewpointWater temp
2018-Jul-22 01:00N 28°33' W 094°37'0 0.1
2018-Jul-22 00:30N 28°33' W 094°37'0 0.1
2018-Jul-21 23:58N 28°33' W 094°37'0 0.2
2018-Jul-21 23:30N 28°33' W 094°37'0 0.1
2018-Jul-21 23:00N 28°33' W 094°37'0 0.1
2018-Jul-21 22:30N 28°33' W 094°37'0 0.1
2018-Jul-21 22:00N 28°33' W 094°37'0 0.0
2018-Jul-21 21:30N 28°33' W 094°37'0 0.0
2018-Jul-21 20:59N 28°33' W 094°37'0 0.0
2018-Jul-21 20:30N 28°33' W 094°37'0 0.0
2018-Jul-21 20:00N 28°33' W 094°37'0 0.1
2018-Jul-21 19:30N 28°33' W 094°37'0 0.1
2018-Jul-21 18:59N 28°33' W 094°37'0 0.0
2018-Jul-21 17:01N 28°33' W 094°37'0 0.0
2018-Jul-21 17:00N 28°33' W 094°37'0 0.0
2018-Jul-21 16:30N 28°33' W 094°37'0 0.0
2018-Jul-21 15:59N 28°33' W 094°37'0 0.0
2018-Jul-21 15:29N 28°33' W 094°37'0 0.2
2018-Jul-21 15:00N 28°33' W 094°37'1 1.3
2018-Jul-21 14:30N 28°33' W 094°36'5 4.6
2018-Jul-21 13:30N 28°35' W 094°32'3 6.1
2018-Jul-21 13:00N 28°36' W 094°28'0 0.8
2018-Jul-21 12:30N 28°36' W 094°28'1 1.0
2018-Jul-21 12:00N 28°36' W 094°28'2 4.9
2018-Jul-21 11:30N 28°36' W 094°25'4 8.5
2018-Jul-21 11:00N 28°37' W 094°21'3 6.9
2018-Jul-21 10:30N 28°38' W 094°17'1 1.1
2018-Jul-21 09:58N 28°38' W 094°16'0 0.0
2018-Jul-21 09:28N 28°38' W 094°16'0 0.0
2018-Jul-21 08:58N 28°38' W 094°16'0 0.0
2018-Jul-21 08:28N 28°38' W 094°16'0 0.0
2018-Jul-21 07:37N 28°38' W 094°16'0 0.0
2018-Jul-21 07:25N 28°38' W 094°16'0 0.0
2018-Jul-21 06:55N 28°38' W 094°16'0 0.0
2018-Jul-21 06:28N 28°38' W 094°16'0 0.0
2018-Jul-21 05:58N 28°38' W 094°16'0 0.0
2018-Jul-21 05:22N 28°38' W 094°16'0 0.0
2018-Jul-21 04:58N 28°38' W 094°16'0 0.0
2018-Jul-21 04:28N 28°38' W 094°16'0 0.0
2018-Jul-21 03:58N 28°38' W 094°16'0 0.0
2018-Jul-21 03:28N 28°38' W 094°16'0 0.0
2018-Jul-21 02:58N 28°38' W 094°16'0 0.1
2018-Jul-21 02:28N 28°38' W 094°16'0 0.1
2018-Jul-21 01:55N 28°38' W 094°16'0 0.0
2018-Jul-21 01:28N 28°38' W 094°16'0 0.0
2018-Jul-21 00:52N 28°38' W 094°16'0 0.2
2018-Jul-21 00:28N 28°38' W 094°16'1 1.8
2018-Jul-21 00:00N 28°37' W 094°16'510.3
2018-Jul-20 23:31N 28°37' W 094°10'611.7
2018-Jul-20 23:00N 28°38' W 094°04'611.7
2018-Jul-20 22:30N 28°41' W 093°58'611.6
2018-Jul-20 22:01N 28°45' W 093°53'611.4
2018-Jul-20 21:30N 28°49' W 093°49'611.2
2018-Jul-20 21:00N 28°54' W 093°45'611.9
2018-Jul-20 20:30N 28°59' W 093°43'611.8
2018-Jul-20 20:00N 29°05' W 093°41'611.9
2018-Jul-20 19:30N 29°11' W 093°40'510.9
2018-Jul-20 19:00N 29°16' W 093°39'510.5
2018-Jul-20 18:30N 29°22' W 093°40'4 8.7
2018-Jul-20 18:00N 29°26' W 093°40'5 9.8
2018-Jul-20 17:30N 29°30' W 093°42'611.7
2018-Jul-20 17:00N 29°35' W 093°47'510.5
2018-Jul-20 16:30N 29°39' W 093°50'4 8.9
2018-Jul-20 16:01N 29°43' W 093°52'4 7.5
2018-Jul-20 15:31N 29°46' W 093°55'4 7.0
2018-Jul-20 15:01N 29°48' W 093°57'3 6.0
2018-Jul-20 14:30N 29°51' W 093°57'3 5.8
2018-Jul-20 14:00N 29°54' W 093°54'3 6.6
2018-Jul-20 13:30N 29°56' W 093°52'3 5.4
2018-Jul-20 13:00N 29°59' W 093°53'3 5.9
2018-Jul-20 12:31N 29°59' W 093°56'2 4.6
2018-Jul-20 12:01N 30°01' W 093°58'1 2.7
2018-Jul-20 11:30N 30°01' W 093°60'0 0.0
2018-Jul-20 11:01N 30°01' W 093°60'0 0.0
2018-Jul-20 10:21N 30°01' W 093°60'0 0.0
2018-Jul-20 10:00N 30°01' W 093°60'0 0.0
2018-Jul-20 09:30N 30°01' W 093°60'0 0.0
2018-Jul-20 09:01N 30°01' W 093°60'0 0.0
2018-Jul-20 08:30N 30°01' W 093°60'0 0.0
2018-Jul-20 08:00N 30°01' W 093°60'0 0.0
2018-Jul-20 07:30N 30°01' W 093°60'0 0.0
2018-Jul-20 07:00N 30°01' W 093°60'0 0.0
2018-Jul-20 06:27N 30°01' W 093°60'0 0.0
2018-Jul-20 06:00N 30°01' W 093°60'0 0.0
2018-Jul-20 05:27N 30°01' W 093°60'0 0.0
2018-Jul-20 05:00N 30°01' W 093°60'0 0.0
2018-Jul-20 04:30N 30°01' W 093°60'0 0.0
2018-Jul-20 04:00N 30°01' W 093°60'0 0.0
2018-Jul-20 03:30N 30°01' W 093°60'0 0.0
2018-Jul-20 03:00N 30°01' W 093°60'0 0.0
2018-Jul-20 02:27N 30°01' W 093°60'0 0.0
2018-Jul-20 02:00N 30°01' W 093°60'0 0.0
2018-Jul-20 01:30N 30°01' W 093°60'0 0.0
2018-Jul-20 01:00N 30°01' W 093°60'0 0.0
2018-Jul-20 00:30N 30°01' W 093°60'0 0.0
2018-Jul-20 00:00N 30°01' W 093°60'0 0.0
2018-Jul-19 23:31N 30°01' W 093°60'0 0.0
2018-Jul-19 23:01N 30°01' W 093°60'0 0.0
2018-Jul-19 22:31N 30°01' W 093°60'0 0.0
2018-Jul-19 22:00N 30°01' W 093°60'0 0.0
2018-Jul-19 21:31N 30°01' W 093°60'0 0.0
2018-Jul-19 21:01N 30°01' W 093°60'0 0.0
2018-Jul-19 20:31N 30°01' W 093°60'0 0.0
2018-Jul-19 20:00N 30°01' W 093°60'0 0.0
2018-Jul-19 19:30N 30°01' W 093°60'0 0.0
2018-Jul-19 19:00N 30°01' W 093°60'0 0.0
2018-Jul-19 18:27N 30°01' W 093°60'0 0.0
2018-Jul-19 18:00N 30°01' W 093°60'0 0.0
2018-Jul-19 17:30N 30°01' W 093°60'0 0.0
2018-Jul-19 17:01N 30°01' W 093°60'0 0.0
2018-Jul-19 16:31N 30°01' W 093°60'0 0.0
2018-Jul-19 16:00N 30°01' W 093°60'0 0.0
2018-Jul-19 15:30N 30°01' W 093°60'0 0.0
2018-Jul-19 15:00N 30°01' W 093°60'0 0.0
2018-Jul-19 14:30N 30°01' W 093°60'0 0.0
2018-Jul-19 13:31N 30°01' W 093°60'0 0.0
2018-Jul-19 13:01N 30°01' W 093°60'0 0.0
2018-Jul-19 12:30N 30°01' W 093°60'0 0.0
2018-Jul-19 12:00N 30°01' W 093°60'0 0.0
2018-Jul-19 11:30N 30°01' W 093°60'0 0.0
2018-Jul-19 11:00N 30°01' W 093°60'0 0.0
2018-Jul-19 10:30N 30°01' W 093°60'0 0.0
2018-Jul-19 10:00N 30°01' W 093°60'0 0.0
2018-Jul-19 09:30N 30°01' W 093°60'0 0.0
2018-Jul-19 09:00N 30°01' W 093°60'0 0.0
2018-Jul-19 08:30N 30°01' W 093°60'0 0.0
2018-Jul-19 08:00N 30°01' W 093°60'0 0.0
2018-Jul-19 07:30N 30°01' W 093°60'0 0.0
2018-Jul-19 07:00N 30°01' W 093°60'0 0.0
2018-Jul-19 06:30N 30°01' W 093°60'0 0.0
2018-Jul-19 06:00N 30°01' W 093°60'0 0.0
2018-Jul-19 05:30N 30°01' W 093°60'0 0.0
2018-Jul-19 05:00N 30°01' W 093°60'0 0.0
2018-Jul-19 04:30N 30°01' W 093°60'0 0.0
2018-Jul-19 04:00N 30°01' W 093°60'0 0.0
2018-Jul-19 03:30N 30°01' W 093°60'0 0.0
2018-Jul-19 03:00N 30°01' W 093°60'0 0.0
2018-Jul-19 02:30N 30°01' W 093°60'0 0.0
2018-Jul-19 02:01N 30°01' W 093°60'0 0.0
2018-Jul-19 01:30N 30°01' W 093°60'0 0.0
2018-Jul-19 01:01N 30°01' W 093°60'0 0.0
2018-Jul-19 00:30N 30°01' W 093°60'0 0.0
2018-Jul-19 00:00N 30°01' W 093°60'0 0.0
2018-Jul-18 23:30N 30°01' W 093°60'0 0.0
2018-Jul-18 23:00N 30°01' W 093°60'0 0.0
2018-Jul-18 22:30N 30°01' W 093°60'0 0.0
2018-Jul-18 22:01N 30°01' W 093°60'0 0.0
2018-Jul-18 21:31N 30°01' W 093°60'1 2.2
2018-Jul-18 21:01N 30°01' W 093°59'3 5.0
2018-Jul-18 20:31N 29°59' W 093°56'0 0.6
2018-Jul-18 20:00N 29°60' W 093°56'0 0.0
2018-Jul-18 19:30N 29°60' W 093°56'0 0.0
2018-Jul-18 19:00N 29°60' W 093°56'0 0.0
2018-Jul-18 18:30N 29°60' W 093°56'0 0.0
2018-Jul-18 18:00N 29°60' W 093°56'0 0.0
2018-Jul-18 17:30N 29°60' W 093°56'0 0.0
2018-Jul-18 17:00N 29°60' W 093°56'0 0.0
2018-Jul-18 16:30N 29°60' W 093°56'0 0.0
2018-Jul-18 16:00N 29°60' W 093°56'0 0.0
2018-Jul-18 15:30N 29°60' W 093°56'0 0.0
2018-Jul-18 15:00N 29°60' W 093°56'0 0.0
2018-Jul-18 14:30N 29°60' W 093°56'0 0.0
2018-Jul-18 13:30N 29°60' W 093°56'0 0.0
2018-Jul-18 13:00N 29°60' W 093°56'0 0.0
2018-Jul-18 12:30N 29°60' W 093°56'0 0.0
2018-Jul-18 12:00N 29°60' W 093°56'0 0.0
2018-Jul-18 11:30N 29°60' W 093°56'0 0.0
2018-Jul-18 10:30N 29°60' W 093°56'0 0.0
2018-Jul-18 10:00N 29°60' W 093°56'0 0.0
2018-Jul-18 09:30N 29°60' W 093°56'0 0.0
2018-Jul-18 09:00N 29°60' W 093°56'0 0.0
2018-Jul-18 08:30N 29°60' W 093°56'0 0.0
2018-Jul-18 08:00N 29°60' W 093°56'0 0.0
2018-Jul-18 07:30N 29°60' W 093°56'0 0.0
2018-Jul-18 07:00N 29°60' W 093°56'0 0.0
2018-Jul-18 06:30N 29°60' W 093°56'0 0.0
2018-Jul-18 06:00N 29°60' W 093°56'0 0.0
2018-Jul-18 05:30N 29°60' W 093°56'0 0.0
2018-Jul-18 05:00N 29°60' W 093°56'0 0.0
2018-Jul-18 04:30N 29°60' W 093°56'0 0.0
2018-Jul-18 04:00N 29°60' W 093°56'0 0.0
2018-Jul-18 03:30N 29°60' W 093°56'0 0.0
2018-Jul-18 03:00N 29°60' W 093°56'0 0.0
2018-Jul-18 02:30N 29°60' W 093°56'0 0.0
2018-Jul-18 02:00N 29°60' W 093°56'0 0.0
2018-Jul-18 01:30N 29°60' W 093°56'0 0.0
2018-Jul-18 01:00N 29°60' W 093°56'0 0.0
2018-Jul-18 00:30N 29°60' W 093°56'0 0.0
2018-Jul-18 00:00N 29°60' W 093°56'0 0.1
2018-Jul-17 23:30N 29°60' W 093°56'0 0.0
2018-Jul-17 23:00N 29°60' W 093°56'0 0.0
2018-Jul-17 22:30N 29°59' W 093°56'0 0.0
2018-Jul-17 22:00N 29°59' W 093°56'0 0.0
2018-Jul-17 21:30N 29°59' W 093°56'0 0.0
2018-Jul-17 21:00N 29°59' W 093°56'0 0.0
2018-Jul-17 20:30N 29°59' W 093°56'0 0.0
2018-Jul-17 20:00N 29°59' W 093°56'0 0.0
2018-Jul-17 19:30N 29°59' W 093°56'0 0.0
2018-Jul-17 19:00N 29°59' W 093°56'0 0.0
2018-Jul-17 18:30N 29°59' W 093°56'0 0.0
2018-Jul-17 18:00N 29°59' W 093°56'0 0.0
2018-Jul-17 17:30N 29°59' W 093°56'0 0.0
2018-Jul-17 17:00N 29°59' W 093°56'0 0.0
2018-Jul-17 16:30N 29°59' W 093°56'0 0.0
2018-Jul-17 16:00N 29°59' W 093°56'0 0.0
2018-Jul-17 15:30N 29°59' W 093°56'0 0.0
2018-Jul-17 15:00N 29°59' W 093°56'0 0.1
2018-Jul-17 14:30N 29°60' W 093°56'0 0.0
2018-Jul-17 14:00N 29°60' W 093°56'0 0.0
2018-Jul-17 13:30N 29°60' W 093°56'0 0.0
2018-Jul-17 13:00N 29°60' W 093°56'0 0.0
2018-Jul-17 12:30N 29°60' W 093°56'0 0.0
2018-Jul-17 12:00N 29°60' W 093°56'0 0.0
2018-Jul-17 11:30N 29°60' W 093°56'0 0.0
2018-Jul-17 11:00N 29°60' W 093°56'0 0.0
2018-Jul-17 10:30N 29°60' W 093°56'0 0.0
2018-Jul-17 10:00N 29°60' W 093°56'0 0.0
2018-Jul-17 09:30N 29°60' W 093°56'0 0.0
2018-Jul-17 09:00N 29°60' W 093°56'0 0.0
2018-Jul-17 08:30N 29°60' W 093°56'0 0.0
2018-Jul-17 08:00N 29°60' W 093°56'0 0.0
2018-Jul-17 07:30N 29°60' W 093°56'0 0.0
2018-Jul-17 07:00N 29°60' W 093°56'0 0.0
2018-Jul-17 06:30N 29°60' W 093°56'0 0.0
2018-Jul-17 06:00N 29°60' W 093°56'0 0.0
2018-Jul-17 05:30N 29°60' W 093°56'0 0.0
2018-Jul-17 05:00N 29°60' W 093°56'0 0.0
2018-Jul-17 04:30N 29°60' W 093°56'0 0.0
2018-Jul-17 04:00N 29°60' W 093°56'0 0.0
2018-Jul-17 03:30N 29°60' W 093°56'0 0.0
2018-Jul-17 03:00N 29°60' W 093°56'0 0.0
2018-Jul-17 02:30N 29°60' W 093°56'0 0.0
2018-Jul-17 02:00N 29°60' W 093°56'0 0.0
2018-Jul-17 01:30N 29°60' W 093°56'0 0.0
2018-Jul-17 01:00N 29°60' W 093°56'0 0.0
2018-Jul-17 00:30N 29°60' W 093°56'0 0.0
2018-Jul-16 23:30N 29°60' W 093°56'0 0.0
2018-Jul-16 23:00N 29°60' W 093°56'0 0.0
2018-Jul-16 22:30N 29°60' W 093°56'0 0.0
2018-Jul-16 22:00N 29°60' W 093°56'0 0.2
2018-Jul-16 21:30N 29°59' W 093°56'1 2.6
2018-Jul-16 21:00N 29°60' W 093°57'2 4.3
2018-Jul-16 20:31N 29°59' W 093°55'3 6.5
2018-Jul-16 20:00N 29°58' W 093°51'3 6.9
2018-Jul-16 19:30N 29°55' W 093°53'4 8.0
2018-Jul-16 19:00N 29°52' W 093°56'4 7.8
2018-Jul-16 18:30N 29°48' W 093°57'4 8.1
2018-Jul-16 18:00N 29°45' W 093°53'4 7.1
2018-Jul-16 17:30N 29°43' W 093°51'611.5
2018-Jul-16 17:01N 29°37' W 093°49'611.5
2018-Jul-16 16:30N 29°33' W 093°44'611.3
2018-Jul-16 16:00N 29°29' W 093°40'5 9.2
2018-Jul-16 15:30N 29°24' W 093°39'2 4.2
2018-Jul-16 15:00N 29°24' W 093°41'0 0.1
2018-Jul-16 14:31N 29°24' W 093°41'0 0.0
2018-Jul-16 14:00N 29°24' W 093°41'1 1.0
2018-Jul-16 13:31N 29°24' W 093°41'4 8.2
2018-Jul-16 13:00N 29°20' W 093°40'611.9
2018-Jul-16 12:30N 29°15' W 093°39'712.5
2018-Jul-16 11:59N 29°08' W 093°39'612.5
2018-Jul-16 11:30N 29°03' W 093°35'612.3
2018-Jul-16 11:00N 28°58' W 093°31'612.8
2018-Jul-16 10:30N 28°53' W 093°27'613.1
2018-Jul-16 10:00N 28°48' W 093°22'713.1
2018-Jul-16 09:28N 28°42' W 093°17'613.1
2018-Jul-16 09:00N 28°37' W 093°13'713.2
2018-Jul-16 08:28N 28°32' W 093°08'  

Dump ship's entire track history